sensor_id;sensor_type;location;lat;lon;timestamp;pressure;altitude;pressure_sealevel;temperature;humidity
59106;BME280;44891;50.204;8.132;2023-02-12T00:00:01;100241.81;;;4.91;100.00
59106;BME280;44891;50.204;8.132;2023-02-12T00:04:15;100245.28;;;5.00;100.00
59106;BME280;44891;50.204;8.132;2023-02-12T00:08:17;100241.19;;;4.98;100.00
59106;BME280;44891;50.204;8.132;2023-02-12T00:12:19;100243.03;;;5.05;100.00
59106;BME280;44891;50.204;8.132;2023-02-12T00:16:23;100243.56;;;5.09;100.00
59106;BME280;44891;50.204;8.132;2023-02-12T00:20:25;100241.91;;;5.08;100.00
59106;BME280;44891;50.204;8.132;2023-02-12T00:24:26;100246.63;;;5.04;100.00
59106;BME280;44891;50.204;8.132;2023-02-12T00:28:28;100258.97;;;5.02;100.00
59106;BME280;44891;50.204;8.132;2023-02-12T00:32:31;100251.66;;;5.06;100.00
59106;BME280;44891;50.204;8.132;2023-02-12T00:36:33;100259.69;;;5.12;100.00
59106;BME280;44891;50.204;8.132;2023-02-12T00:40:35;100254.72;;;5.01;100.00
59106;BME280;44891;50.204;8.132;2023-02-12T00:44:37;100247.75;;;4.84;100.00
59106;BME280;44891;50.204;8.132;2023-02-12T00:48:40;100255.47;;;4.94;100.00
59106;BME280;44891;50.204;8.132;2023-02-12T00:52:42;100248.41;;;5.04;100.00
59106;BME280;44891;50.204;8.132;2023-02-12T00:56:44;100250.84;;;5.05;100.00
59106;BME280;44891;50.204;8.132;2023-02-12T01:00:46;100255.47;;;4.94;100.00
59106;BME280;44891;50.204;8.132;2023-02-12T01:04:49;100249.66;;;5.00;100.00
59106;BME280;44891;50.204;8.132;2023-02-12T01:08:51;100250.88;;;4.87;100.00
59106;BME280;44891;50.204;8.132;2023-02-12T01:12:54;100245.66;;;4.87;100.00
59106;BME280;44891;50.204;8.132;2023-02-12T01:16:56;100247.44;;;4.87;100.00
59106;BME280;44891;50.204;8.132;2023-02-12T01:20:59;100259.06;;;4.93;100.00
59106;BME280;44891;50.204;8.132;2023-02-12T01:25:02;100242.50;;;5.02;100.00
59106;BME280;44891;50.204;8.132;2023-02-12T01:29:06;100252.44;;;4.98;100.00
59106;BME280;44891;50.204;8.132;2023-02-12T01:33:08;100260.72;;;5.02;100.00
59106;BME280;44891;50.204;8.132;2023-02-12T01:37:11;100252.59;;;4.97;100.00
59106;BME280;44891;50.204;8.132;2023-02-12T01:41:15;100247.50;;;4.95;100.00
59106;BME280;44891;50.204;8.132;2023-02-12T01:49:34;100254.38;;;4.96;100.00
59106;BME280;44891;50.204;8.132;2023-02-12T01:53:40;100245.81;;;5.04;100.00
59106;BME280;44891;50.204;8.132;2023-02-12T01:57:45;100239.44;;;5.06;100.00
59106;BME280;44891;50.204;8.132;2023-02-12T02:01:48;100238.63;;;5.06;100.00
59106;BME280;44891;50.204;8.132;2023-02-12T02:05:52;100252.19;;;5.09;100.00
59106;BME280;44891;50.204;8.132;2023-02-12T02:09:57;100240.97;;;5.09;100.00
59106;BME280;44891;50.204;8.132;2023-02-12T02:14:02;100240.88;;;5.01;100.00
59106;BME280;44891;50.204;8.132;2023-02-12T02:18:22;100239.25;;;5.00;100.00
59106;BME280;44891;50.204;8.132;2023-02-12T02:22:27;100230.78;;;4.98;100.00
59106;BME280;44891;50.204;8.132;2023-02-12T02:26:34;100233.75;;;5.03;100.00
59106;BME280;44891;50.204;8.132;2023-02-12T02:30:47;100234.34;;;4.97;100.00
59106;BME280;44891;50.204;8.132;2023-02-12T02:34:54;100233.66;;;4.95;100.00
59106;BME280;44891;50.204;8.132;2023-02-12T02:38:59;100224.75;;;4.97;100.00
59106;BME280;44891;50.204;8.132;2023-02-12T02:43:05;100225.81;;;4.86;100.00
59106;BME280;44891;50.204;8.132;2023-02-12T02:47:10;100228.78;;;4.91;100.00
59106;BME280;44891;50.204;8.132;2023-02-12T02:51:15;100227.81;;;4.93;100.00
59106;BME280;44891;50.204;8.132;2023-02-12T02:55:20;100229.16;;;4.97;100.00
59106;BME280;44891;50.204;8.132;2023-02-12T02:59:24;100219.63;;;4.87;100.00
59106;BME280;44891;50.204;8.132;2023-02-12T03:03:29;100226.78;;;4.85;100.00
59106;BME280;44891;50.204;8.132;2023-02-12T03:07:33;100222.44;;;4.94;100.00
59106;BME280;44891;50.204;8.132;2023-02-12T03:11:37;100218.81;;;4.87;100.00
59106;BME280;44891;50.204;8.132;2023-02-12T03:15:40;100224.38;;;4.92;100.00
59106;BME280;44891;50.204;8.132;2023-02-12T03:19:46;100218.03;;;4.95;100.00
59106;BME280;44891;50.204;8.132;2023-02-12T03:23:51;100229.47;;;5.02;100.00
59106;BME280;44891;50.204;8.132;2023-02-12T03:27:57;100222.31;;;4.96;100.00
59106;BME280;44891;50.204;8.132;2023-02-12T03:32:10;100217.63;;;4.81;100.00
59106;BME280;44891;50.204;8.132;2023-02-12T03:36:21;100214.31;;;4.71;100.00
59106;BME280;44891;50.204;8.132;2023-02-12T03:40:27;100216.53;;;4.84;100.00
59106;BME280;44891;50.204;8.132;2023-02-12T03:44:34;100210.09;;;4.96;100.00
59106;BME280;44891;50.204;8.132;2023-02-12T03:48:43;100214.50;;;4.96;100.00
59106;BME280;44891;50.204;8.132;2023-02-12T03:52:49;100230.41;;;4.93;100.00
59106;BME280;44891;50.204;8.132;2023-02-12T03:56:52;100231.75;;;4.97;100.00
59106;BME280;44891;50.204;8.132;2023-02-12T04:00:56;100233.47;;;4.88;100.00
59106;BME280;44891;50.204;8.132;2023-02-12T04:05:02;100229.53;;;4.84;100.00
59106;BME280;44891;50.204;8.132;2023-02-12T04:09:06;100235.63;;;4.93;100.00
59106;BME280;44891;50.204;8.132;2023-02-12T04:13:10;100235.84;;;4.81;100.00
59106;BME280;44891;50.204;8.132;2023-02-12T04:17:17;100239.69;;;4.69;100.00
59106;BME280;44891;50.204;8.132;2023-02-12T04:21:25;100243.88;;;4.88;100.00
59106;BME280;44891;50.204;8.132;2023-02-12T04:25:39;100252.88;;;4.94;100.00
59106;BME280;44891;50.204;8.132;2023-02-12T04:29:45;100256.50;;;5.01;100.00
59106;BME280;44891;50.204;8.132;2023-02-12T04:33:50;100262.31;;;4.95;100.00
59106;BME280;44891;50.204;8.132;2023-02-12T04:37:58;100260.41;;;4.97;100.00
59106;BME280;44891;50.204;8.132;2023-02-12T04:42:04;100263.97;;;4.96;100.00
59106;BME280;44891;50.204;8.132;2023-02-12T04:46:06;100268.53;;;5.02;100.00
59106;BME280;44891;50.204;8.132;2023-02-12T04:50:09;100263.00;;;4.97;100.00
59106;BME280;44891;50.204;8.132;2023-02-12T04:54:11;100259.88;;;4.93;100.00
59106;BME280;44891;50.204;8.132;2023-02-12T04:58:15;100264.44;;;4.73;100.00
59106;BME280;44891;50.204;8.132;2023-02-12T05:02:17;100257.91;;;4.69;100.00
59106;BME280;44891;50.204;8.132;2023-02-12T05:06:19;100256.03;;;4.61;100.00
59106;BME280;44891;50.204;8.132;2023-02-12T05:10:21;100246.72;;;4.77;100.00
59106;BME280;44891;50.204;8.132;2023-02-12T05:14:24;100244.84;;;4.87;100.00
59106;BME280;44891;50.204;8.132;2023-02-12T05:18:26;100255.78;;;4.90;100.00
59106;BME280;44891;50.204;8.132;2023-02-12T05:22:28;100248.41;;;4.86;100.00
59106;BME280;44891;50.204;8.132;2023-02-12T05:26:30;100245.97;;;4.84;100.00
59106;BME280;44891;50.204;8.132;2023-02-12T05:30:33;100258.06;;;4.94;100.00
59106;BME280;44891;50.204;8.132;2023-02-12T05:34:35;100256.00;;;4.97;100.00
59106;BME280;44891;50.204;8.132;2023-02-12T05:38:37;100256.28;;;4.94;100.00
59106;BME280;44891;50.204;8.132;2023-02-12T05:42:39;100260.19;;;4.90;100.00
59106;BME280;44891;50.204;8.132;2023-02-12T05:46:42;100260.72;;;5.02;100.00
59106;BME280;44891;50.204;8.132;2023-02-12T05:50:44;100267.44;;;5.04;100.00
59106;BME280;44891;50.204;8.132;2023-02-12T05:54:47;100265.50;;;4.88;100.00
59106;BME280;44891;50.204;8.132;2023-02-12T05:58:51;100265.13;;;5.01;100.00
59106;BME280;44891;50.204;8.132;2023-02-12T06:02:54;100267.13;;;5.07;100.00
59106;BME280;44891;50.204;8.132;2023-02-12T06:06:56;100272.50;;;4.88;100.00
59106;BME280;44891;50.204;8.132;2023-02-12T06:10:58;100273.84;;;4.92;100.00
59106;BME280;44891;50.204;8.132;2023-02-12T06:15:00;100277.44;;;4.73;100.00
59106;BME280;44891;50.204;8.132;2023-02-12T06:19:04;100275.88;;;4.80;100.00
59106;BME280;44891;50.204;8.132;2023-02-12T06:23:06;100278.75;;;4.95;100.00
59106;BME280;44891;50.204;8.132;2023-02-12T06:27:07;100278.72;;;4.69;100.00
59106;BME280;44891;50.204;8.132;2023-02-12T06:31:15;100280.63;;;4.67;100.00
59106;BME280;44891;50.204;8.132;2023-02-12T06:35:19;100291.00;;;4.77;100.00
59106;BME280;44891;50.204;8.132;2023-02-12T06:39:21;100295.66;;;4.91;100.00
59106;BME280;44891;50.204;8.132;2023-02-12T06:43:23;100297.44;;;4.90;100.00
59106;BME280;44891;50.204;8.132;2023-02-12T06:47:25;100295.38;;;4.76;100.00
59106;BME280;44891;50.204;8.132;2023-02-12T06:51:29;100303.84;;;4.78;100.00
59106;BME280;44891;50.204;8.132;2023-02-12T06:55:31;100302.94;;;4.87;100.00
59106;BME280;44891;50.204;8.132;2023-02-12T06:59:32;100309.66;;;4.72;100.00
59106;BME280;44891;50.204;8.132;2023-02-12T07:03:34;100306.50;;;4.86;100.00
59106;BME280;44891;50.204;8.132;2023-02-12T07:07:40;100310.22;;;4.66;100.00
59106;BME280;44891;50.204;8.132;2023-02-12T07:11:41;100313.00;;;4.64;100.00
59106;BME280;44891;50.204;8.132;2023-02-12T07:15:44;100312.91;;;4.74;100.00
59106;BME280;44891;50.204;8.132;2023-02-12T07:19:46;100318.28;;;4.90;100.00
59106;BME280;44891;50.204;8.132;2023-02-12T07:23:50;100316.06;;;4.96;100.00
59106;BME280;44891;50.204;8.132;2023-02-12T07:27:52;100323.56;;;4.99;100.00
59106;BME280;44891;50.204;8.132;2023-02-12T07:31:53;100287.25;;;4.79;100.00
59106;BME280;44891;50.204;8.132;2023-02-12T07:35:58;100320.84;;;5.08;100.00
59106;BME280;44891;50.204;8.132;2023-02-12T07:40:01;100314.69;;;5.09;100.00
59106;BME280;44891;50.204;8.132;2023-02-12T07:44:04;100325.72;;;5.03;100.00
59106;BME280;44891;50.204;8.132;2023-02-12T07:48:07;100332.31;;;5.15;100.00
59106;BME280;44891;50.204;8.132;2023-02-12T07:52:09;100333.34;;;5.23;100.00
59106;BME280;44891;50.204;8.132;2023-02-12T07:56:12;100336.78;;;5.23;100.00
59106;BME280;44891;50.204;8.132;2023-02-12T08:00:15;100336.00;;;5.31;100.00
59106;BME280;44891;50.204;8.132;2023-02-12T08:04:18;100331.31;;;5.34;100.00
59106;BME280;44891;50.204;8.132;2023-02-12T08:08:20;100339.19;;;5.42;100.00
59106;BME280;44891;50.204;8.132;2023-02-12T08:12:24;100334.19;;;5.49;100.00
59106;BME280;44891;50.204;8.132;2023-02-12T08:16:26;100339.09;;;5.52;100.00
59106;BME280;44891;50.204;8.132;2023-02-12T08:20:28;100345.25;;;5.69;100.00
59106;BME280;44891;50.204;8.132;2023-02-12T08:24:30;100349.84;;;5.75;100.00
59106;BME280;44891;50.204;8.132;2023-02-12T08:28:34;100342.84;;;5.76;100.00
59106;BME280;44891;50.204;8.132;2023-02-12T08:32:36;100345.38;;;5.93;100.00
59106;BME280;44891;50.204;8.132;2023-02-12T08:36:38;100340.22;;;6.02;100.00
59106;BME280;44891;50.204;8.132;2023-02-12T08:40:40;100346.03;;;6.21;100.00
59106;BME280;44891;50.204;8.132;2023-02-12T08:44:43;100344.91;;;6.32;100.00
59106;BME280;44891;50.204;8.132;2023-02-12T08:48:45;100351.47;;;6.44;100.00
59106;BME280;44891;50.204;8.132;2023-02-12T08:52:47;100345.97;;;6.64;100.00
59106;BME280;44891;50.204;8.132;2023-02-12T08:56:49;100348.13;;;6.68;100.00
59106;BME280;44891;50.204;8.132;2023-02-12T09:00:53;100351.38;;;6.62;100.00
59106;BME280;44891;50.204;8.132;2023-02-12T09:04:54;100346.47;;;6.67;100.00
59106;BME280;44891;50.204;8.132;2023-02-12T09:08:56;100346.84;;;6.80;100.00
59106;BME280;44891;50.204;8.132;2023-02-12T09:12:58;100351.91;;;6.90;100.00
59106;BME280;44891;50.204;8.132;2023-02-12T09:17:01;100355.16;;;6.92;100.00
59106;BME280;44891;50.204;8.132;2023-02-12T09:21:04;100349.16;;;7.00;100.00
59106;BME280;44891;50.204;8.132;2023-02-12T09:25:06;100346.53;;;7.08;100.00
59106;BME280;44891;50.204;8.132;2023-02-12T09:29:08;100348.47;;;7.06;100.00
59106;BME280;44891;50.204;8.132;2023-02-12T09:33:11;100356.34;;;7.14;100.00
59106;BME280;44891;50.204;8.132;2023-02-12T09:37:13;100359.09;;;7.21;100.00
59106;BME280;44891;50.204;8.132;2023-02-12T09:45:34;100352.75;;;7.40;100.00
59106;BME280;44891;50.204;8.132;2023-02-12T09:49:46;100360.41;;;7.49;100.00
59106;BME280;44891;50.204;8.132;2023-02-12T09:53:50;100359.25;;;7.60;100.00
59106;BME280;44891;50.204;8.132;2023-02-12T09:57:58;100361.31;;;7.81;100.00
59106;BME280;44891;50.204;8.132;2023-02-12T10:02:01;100361.16;;;7.82;100.00
59106;BME280;44891;50.204;8.132;2023-02-12T10:06:06;100360.22;;;7.67;100.00
59106;BME280;44891;50.204;8.132;2023-02-12T10:10:12;100356.13;;;7.64;100.00
59106;BME280;44891;50.204;8.132;2023-02-12T10:14:20;100353.50;;;7.64;100.00
59106;BME280;44891;50.204;8.132;2023-02-12T10:18:33;100359.69;;;7.72;100.00
59106;BME280;44891;50.204;8.132;2023-02-12T10:22:40;100361.81;;;7.76;100.00
59106;BME280;44891;50.204;8.132;2023-02-12T10:26:45;100362.16;;;7.73;100.00
59106;BME280;44891;50.204;8.132;2023-02-12T10:30:50;100364.94;;;7.72;100.00
59106;BME280;44891;50.204;8.132;2023-02-12T10:34:53;100366.44;;;7.66;100.00
59106;BME280;44891;50.204;8.132;2023-02-12T10:39:00;100359.25;;;7.60;100.00
59106;BME280;44891;50.204;8.132;2023-02-12T10:43:02;100365.13;;;7.62;100.00
59106;BME280;44891;50.204;8.132;2023-02-12T10:47:04;100366.75;;;7.63;100.00
59106;BME280;44891;50.204;8.132;2023-02-12T10:51:12;100365.75;;;7.64;100.00
59106;BME280;44891;50.204;8.132;2023-02-12T10:55:25;100353.84;;;7.61;100.00
59106;BME280;44891;50.204;8.132;2023-02-12T10:59:27;100359.88;;;7.62;100.00
59106;BME280;44891;50.204;8.132;2023-02-12T11:03:30;100312.38;;;7.34;100.00
59106;BME280;44891;50.204;8.132;2023-02-12T11:07:44;100344.19;;;7.62;100.00
59106;BME280;44891;50.204;8.132;2023-02-12T11:11:48;100343.03;;;7.64;100.00
59106;BME280;44891;50.204;8.132;2023-02-12T11:15:50;100341.25;;;7.73;100.00
59106;BME280;44891;50.204;8.132;2023-02-12T11:24:28;100320.56;;;7.95;100.00
59106;BME280;44891;50.204;8.132;2023-02-12T11:28:33;100315.97;;;7.97;100.00
59106;BME280;44891;50.204;8.132;2023-02-12T11:32:36;100314.84;;;7.99;100.00
59106;BME280;44891;50.204;8.132;2023-02-12T11:36:39;100313.50;;;8.03;100.00
59106;BME280;44891;50.204;8.132;2023-02-12T11:40:44;100315.94;;;8.05;100.00
59106;BME280;44891;50.204;8.132;2023-02-12T11:44:48;100318.41;;;8.06;100.00
59106;BME280;44891;50.204;8.132;2023-02-12T11:48:51;100318.69;;;8.11;100.00
59106;BME280;44891;50.204;8.132;2023-02-12T11:52:55;100318.19;;;8.16;100.00
59106;BME280;44891;50.204;8.132;2023-02-12T11:56:58;100309.84;;;8.21;100.00
59106;BME280;44891;50.204;8.132;2023-02-12T12:01:03;100297.06;;;8.26;99.83
59106;BME280;44891;50.204;8.132;2023-02-12T12:05:08;100297.00;;;8.34;99.03
59106;BME280;44891;50.204;8.132;2023-02-12T12:09:14;100291.06;;;8.48;98.26
59106;BME280;44891;50.204;8.132;2023-02-12T12:13:19;100246.47;;;8.25;97.43
59106;BME280;44891;50.204;8.132;2023-02-12T12:17:24;100284.75;;;8.57;97.33
59106;BME280;44891;50.204;8.132;2023-02-12T12:21:44;100277.91;;;8.56;96.52
59106;BME280;44891;50.204;8.132;2023-02-12T12:25:48;100278.84;;;8.63;96.50
59106;BME280;44891;50.204;8.132;2023-02-12T12:29:52;100261.97;;;8.66;96.29
59106;BME280;44891;50.204;8.132;2023-02-12T12:33:58;100270.09;;;8.71;96.05
59106;BME280;44891;50.204;8.132;2023-02-12T12:38:03;100271.56;;;8.74;95.45
59106;BME280;44891;50.204;8.132;2023-02-12T12:42:18;100276.19;;;8.71;96.19
59106;BME280;44891;50.204;8.132;2023-02-12T12:46:30;100273.59;;;8.63;96.34
59106;BME280;44891;50.204;8.132;2023-02-12T12:50:38;100271.63;;;8.65;95.79
59106;BME280;44891;50.204;8.132;2023-02-12T12:54:47;100267.97;;;8.75;96.15
59106;BME280;44891;50.204;8.132;2023-02-12T12:58:55;100263.09;;;8.71;95.94
59106;BME280;44891;50.204;8.132;2023-02-12T13:03:11;100253.41;;;8.72;95.36
59106;BME280;44891;50.204;8.132;2023-02-12T13:07:20;100248.00;;;8.74;95.93
59106;BME280;44891;50.204;8.132;2023-02-12T13:11:32;100250.78;;;8.72;95.63
59106;BME280;44891;50.204;8.132;2023-02-12T13:15:36;100241.06;;;8.81;95.74
59106;BME280;44891;50.204;8.132;2023-02-12T13:19:45;100241.50;;;8.84;94.79
59106;BME280;44891;50.204;8.132;2023-02-12T13:23:56;100243.72;;;8.95;93.60
59106;BME280;44891;50.204;8.132;2023-02-12T13:28:00;100232.22;;;8.96;94.52
59106;BME280;44891;50.204;8.132;2023-02-12T13:32:04;100226.56;;;9.08;93.22
59106;BME280;44891;50.204;8.132;2023-02-12T13:36:07;100224.94;;;9.21;92.79
59106;BME280;44891;50.204;8.132;2023-02-12T13:40:14;100231.47;;;9.25;92.30
59106;BME280;44891;50.204;8.132;2023-02-12T13:44:17;100225.03;;;9.28;92.42
59106;BME280;44891;50.204;8.132;2023-02-12T13:48:39;100230.28;;;9.13;92.54
59106;BME280;44891;50.204;8.132;2023-02-12T13:52:45;100229.38;;;9.06;93.83
59106;BME280;44891;50.204;8.132;2023-02-12T13:56:51;100228.91;;;9.03;94.79
59106;BME280;44891;50.204;8.132;2023-02-12T14:00:58;100222.84;;;9.02;95.03
59106;BME280;44891;50.204;8.132;2023-02-12T14:05:00;100225.53;;;8.94;95.39
59106;BME280;44891;50.204;8.132;2023-02-12T14:09:06;100222.22;;;9.00;94.74
59106;BME280;44891;50.204;8.132;2023-02-12T14:13:12;100224.09;;;8.91;95.80
59106;BME280;44891;50.204;8.132;2023-02-12T14:21:36;100211.66;;;9.08;93.98
59106;BME280;44891;50.204;8.132;2023-02-12T14:25:38;100205.06;;;9.12;93.66
59106;BME280;44891;50.204;8.132;2023-02-12T14:29:52;100209.31;;;9.13;93.30
59106;BME280;44891;50.204;8.132;2023-02-12T14:42:41;100204.59;;;9.09;89.48
59106;BME280;44891;50.204;8.132;2023-02-12T14:46:46;100211.66;;;9.08;89.95
59106;BME280;44891;50.204;8.132;2023-02-12T14:50:48;100212.47;;;9.09;89.20
59106;BME280;44891;50.204;8.132;2023-02-12T14:54:52;100206.69;;;9.13;89.15
59106;BME280;44891;50.204;8.132;2023-02-12T14:58:55;100202.53;;;9.19;88.56
59106;BME280;44891;50.204;8.132;2023-02-12T15:03:01;100204.41;;;9.10;88.62
59106;BME280;44891;50.204;8.132;2023-02-12T15:07:08;100207.69;;;9.12;88.33
59106;BME280;44891;50.204;8.132;2023-02-12T15:11:23;100199.53;;;9.07;88.22
59106;BME280;44891;50.204;8.132;2023-02-12T15:15:30;100200.53;;;9.06;89.01
59106;BME280;44891;50.204;8.132;2023-02-12T15:19:38;100212.16;;;9.04;89.28
59106;BME280;44891;50.204;8.132;2023-02-12T15:23:41;100207.75;;;9.04;90.02
59106;BME280;44891;50.204;8.132;2023-02-12T15:27:43;100200.63;;;8.98;89.93
59106;BME280;44891;50.204;8.132;2023-02-12T15:31:50;100211.91;;;8.98;89.76
59106;BME280;44891;50.204;8.132;2023-02-12T15:35:54;100202.78;;;8.94;89.66
59106;BME280;44891;50.204;8.132;2023-02-12T15:39:57;100196.34;;;8.97;89.85
59106;BME280;44891;50.204;8.132;2023-02-12T15:43:59;100196.44;;;8.89;90.24
59106;BME280;44891;50.204;8.132;2023-02-12T15:48:17;100192.38;;;8.86;90.52
59106;BME280;44891;50.204;8.132;2023-02-12T15:52:22;100193.53;;;8.84;91.86
59106;BME280;44891;50.204;8.132;2023-02-12T15:56:32;100195.41;;;8.75;93.33
59106;BME280;44891;50.204;8.132;2023-02-12T16:00:37;100193.16;;;8.49;96.12
59106;BME280;44891;50.204;8.132;2023-02-12T16:04:40;100189.63;;;8.42;97.19
59106;BME280;44891;50.204;8.132;2023-02-12T16:08:45;100186.66;;;8.45;97.23
59106;BME280;44891;50.204;8.132;2023-02-12T16:12:48;100188.94;;;8.48;97.34
59106;BME280;44891;50.204;8.132;2023-02-12T16:16:51;100193.53;;;8.46;97.33
59106;BME280;44891;50.204;8.132;2023-02-12T16:21:00;100196.66;;;8.41;98.31
59106;BME280;44891;50.204;8.132;2023-02-12T16:25:09;100187.53;;;8.37;98.39
59106;BME280;44891;50.204;8.132;2023-02-12T16:29:15;100195.72;;;8.34;98.57
59106;BME280;44891;50.204;8.132;2023-02-12T16:33:33;100200.94;;;8.34;98.91
59106;BME280;44891;50.204;8.132;2023-02-12T16:37:43;100193.44;;;8.31;99.16
59106;BME280;44891;50.204;8.132;2023-02-12T16:41:52;100187.31;;;8.16;99.71
59106;BME280;44891;50.204;8.132;2023-02-12T16:46:04;100197.22;;;8.06;100.00
59106;BME280;44891;50.204;8.132;2023-02-12T16:50:13;100199.16;;;8.04;100.00
59106;BME280;44891;50.204;8.132;2023-02-12T16:54:26;100196.72;;;8.02;100.00
59106;BME280;44891;50.204;8.132;2023-02-12T16:58:30;100201.59;;;8.05;100.00
59106;BME280;44891;50.204;8.132;2023-02-12T17:02:32;100201.59;;;8.05;100.00
59106;BME280;44891;50.204;8.132;2023-02-12T17:06:35;100180.66;;;7.82;100.00
59106;BME280;44891;50.204;8.132;2023-02-12T17:10:37;100217.72;;;7.94;100.00
59106;BME280;44891;50.204;8.132;2023-02-12T17:14:40;100213.16;;;7.88;100.00
59106;BME280;44891;50.204;8.132;2023-02-12T17:18:42;100212.84;;;7.83;100.00
59106;BME280;44891;50.204;8.132;2023-02-12T17:22:48;100217.38;;;7.66;100.00
59106;BME280;44891;50.204;8.132;2023-02-12T17:26:51;100218.84;;;7.60;100.00
59106;BME280;44891;50.204;8.132;2023-02-12T17:30:54;100219.16;;;7.57;100.00
59106;BME280;44891;50.204;8.132;2023-02-12T17:34:56;100230.78;;;7.55;99.88
59106;BME280;44891;50.204;8.132;2023-02-12T17:38:58;100230.00;;;7.38;100.00
59106;BME280;44891;50.204;8.132;2023-02-12T17:43:01;100230.38;;;7.35;100.00
59106;BME280;44891;50.204;8.132;2023-02-12T17:47:04;100230.22;;;7.28;100.00
59106;BME280;44891;50.204;8.132;2023-02-12T17:51:06;100237.88;;;7.30;100.00
59106;BME280;44891;50.204;8.132;2023-02-12T17:55:09;100241.47;;;7.29;100.00
59106;BME280;44891;50.204;8.132;2023-02-12T17:59:13;100244.75;;;7.23;100.00
59106;BME280;44891;50.204;8.132;2023-02-12T18:03:16;100250.81;;;7.23;100.00
59106;BME280;44891;50.204;8.132;2023-02-12T18:07:18;100243.47;;;7.27;100.00
59106;BME280;44891;50.204;8.132;2023-02-12T18:11:20;100245.56;;;7.23;100.00
59106;BME280;44891;50.204;8.132;2023-02-12T18:15:22;100257.19;;;7.13;100.00
59106;BME280;44891;50.204;8.132;2023-02-12T18:19:25;100253.59;;;7.14;100.00
59106;BME280;44891;50.204;8.132;2023-02-12T18:23:27;100257.50;;;7.18;100.00
59106;BME280;44891;50.204;8.132;2023-02-12T18:27:29;100257.50;;;7.18;100.00
59106;BME280;44891;50.204;8.132;2023-02-12T18:31:31;100254.25;;;7.16;100.00
59106;BME280;44891;50.204;8.132;2023-02-12T18:35:34;100252.94;;;7.12;100.00
59106;BME280;44891;50.204;8.132;2023-02-12T18:39:36;100258.34;;;7.10;100.00
59106;BME280;44891;50.204;8.132;2023-02-12T18:43:38;100253.09;;;7.10;100.00
59106;BME280;44891;50.204;8.132;2023-02-12T18:47:40;100247.56;;;7.05;100.00
59106;BME280;44891;50.204;8.132;2023-02-12T18:51:43;100251.97;;;6.96;100.00
59106;BME280;44891;50.204;8.132;2023-02-12T18:55:45;100251.31;;;6.86;100.00
59106;BME280;44891;50.204;8.132;2023-02-12T18:59:47;100243.66;;;6.76;100.00
59106;BME280;44891;50.204;8.132;2023-02-12T19:03:51;100249.03;;;6.59;100.00
59106;BME280;44891;50.204;8.132;2023-02-12T19:07:54;100241.38;;;6.65;100.00
59106;BME280;44891;50.204;8.132;2023-02-12T19:11:57;100240.03;;;6.45;100.00
59106;BME280;44891;50.204;8.132;2023-02-12T19:16:03;100244.75;;;6.33;99.10
59106;BME280;44891;50.204;8.132;2023-02-12T19:20:06;100244.72;;;6.09;98.93
59106;BME280;44891;50.204;8.132;2023-02-12T19:24:10;100249.00;;;5.84;100.00
59106;BME280;44891;50.204;8.132;2023-02-12T19:28:12;100241.00;;;5.85;98.14
59106;BME280;44891;50.204;8.132;2023-02-12T19:32:14;100244.22;;;5.71;97.01
59106;BME280;44891;50.204;8.132;2023-02-12T19:36:17;100242.44;;;5.37;98.18
59106;BME280;44891;50.204;8.132;2023-02-12T19:40:20;100242.72;;;5.34;98.04
59106;BME280;44891;50.204;8.132;2023-02-12T19:44:23;100245.38;;;5.42;96.84
59106;BME280;44891;50.204;8.132;2023-02-12T19:48:25;100247.19;;;5.16;94.76
59106;BME280;44891;50.204;8.132;2023-02-12T19:52:27;100245.91;;;4.76;96.99
59106;BME280;44891;50.204;8.132;2023-02-12T19:56:30;100244.34;;;4.48;99.35
59106;BME280;44891;50.204;8.132;2023-02-12T20:00:32;100229.34;;;4.42;98.48
59106;BME280;44891;50.204;8.132;2023-02-12T20:04:34;100238.88;;;4.51;99.07
59106;BME280;44891;50.204;8.132;2023-02-12T20:08:36;100233.88;;;4.57;96.73
59106;BME280;44891;50.204;8.132;2023-02-12T20:12:40;100231.13;;;4.41;96.83
59106;BME280;44891;50.204;8.132;2023-02-12T20:16:42;100234.97;;;4.19;97.75
59106;BME280;44891;50.204;8.132;2023-02-12T20:20:46;100238.25;;;4.21;97.57
59106;BME280;44891;50.204;8.132;2023-02-12T20:24:47;100237.66;;;4.27;96.85
59106;BME280;44891;50.204;8.132;2023-02-12T20:28:51;100237.53;;;4.01;97.37
59106;BME280;44891;50.204;8.132;2023-02-12T20:32:52;100245.88;;;4.05;96.65
59106;BME280;44891;50.204;8.132;2023-02-12T20:36:54;100245.22;;;4.03;96.74
59106;BME280;44891;50.204;8.132;2023-02-12T20:40:58;100254.56;;;4.14;96.61
59106;BME280;44891;50.204;8.132;2023-02-12T20:45:01;100261.19;;;3.80;98.86
59106;BME280;44891;50.204;8.132;2023-02-12T20:49:03;100250.59;;;3.92;100.00
59106;BME280;44891;50.204;8.132;2023-02-12T20:53:05;100258.34;;;4.01;99.89
59106;BME280;44891;50.204;8.132;2023-02-12T20:57:07;100256.66;;;4.10;97.90
59106;BME280;44891;50.204;8.132;2023-02-12T21:01:11;100256.88;;;3.99;98.49
59106;BME280;44891;50.204;8.132;2023-02-12T21:05:13;100258.22;;;4.03;99.17
59106;BME280;44891;50.204;8.132;2023-02-12T21:09:16;100257.19;;;4.14;98.89
59106;BME280;44891;50.204;8.132;2023-02-12T21:13:18;100257.00;;;3.97;99.43
59106;BME280;44891;50.204;8.132;2023-02-12T21:17:21;100267.66;;;4.04;100.00
59106;BME280;44891;50.204;8.132;2023-02-12T21:21:24;100265.13;;;4.12;100.00
59106;BME280;44891;50.204;8.132;2023-02-12T21:25:26;100262.75;;;4.19;100.00
59106;BME280;44891;50.204;8.132;2023-02-12T21:29:28;100266.25;;;4.27;100.00
59106;BME280;44891;50.204;8.132;2023-02-12T21:33:34;100263.00;;;4.25;100.00
59106;BME280;44891;50.204;8.132;2023-02-12T21:37:35;100268.59;;;4.30;100.00
59106;BME280;44891;50.204;8.132;2023-02-12T21:41:38;100271.13;;;4.40;100.00
59106;BME280;44891;50.204;8.132;2023-02-12T21:45:47;100273.50;;;4.51;100.00